Apple Valley, Utah
Current Conditions -  °F | °C
As of 3:15 AM on Saturday 25 Oct 2014 (Local Time) from KAZC Reporting Station
Clear Clear  
Wind Chill: 40°   Ceiling: Unl
Heat Index: 43°   Visibility: 10mi
Dew Point: 32°   Wind: 5mph
Humidity: 65%   Direction: 160°SSE
Pressure: 30.25"   Gusts: NA
Location:  37.2274°N, 113.139°W
Report Text: KAZC 250915Z AUTO 16004KT 10SM CLR 06/00 A3025 RMK AO2 T00620001
Loading
Personal Weather Stations






























Interactive Weather Map
Tropical Storm Tracking
New forecast layout! Learn more

10-Day Weather Forecast

Advertisements
Track Severe Weather on mobile